sensor_id;sensor_type;location;lat;lon;timestamp;P1;durP1;ratioP1;P2;durP2;ratioP2
28724;SDS011;43472;48.980;9.646;2022-11-15T00:02:04;12.23;;;3.65;;
28724;SDS011;43472;48.980;9.646;2022-11-15T00:07:06;5.32;;;2.92;;
28724;SDS011;43472;48.980;9.646;2022-11-15T00:12:08;6.65;;;2.80;;
28724;SDS011;43472;48.980;9.646;2022-11-15T00:17:09;7.90;;;2.50;;
28724;SDS011;43472;48.980;9.646;2022-11-15T00:22:11;12.65;;;5.43;;
28724;SDS011;43472;48.980;9.646;2022-11-15T00:27:13;37.90;;;16.95;;
28724;SDS011;43472;48.980;9.646;2022-11-15T00:32:15;23.98;;;12.45;;
28724;SDS011;43472;48.980;9.646;2022-11-15T00:37:17;21.73;;;10.30;;
28724;SDS011;43472;48.980;9.646;2022-11-15T00:42:18;12.05;;;6.85;;
28724;SDS011;43472;48.980;9.646;2022-11-15T00:47:20;9.57;;;5.45;;
28724;SDS011;43472;48.980;9.646;2022-11-15T00:52:22;11.68;;;5.35;;
28724;SDS011;43472;48.980;9.646;2022-11-15T00:57:23;12.93;;;6.65;;
28724;SDS011;43472;48.980;9.646;2022-11-15T01:02:25;13.73;;;8.30;;
28724;SDS011;43472;48.980;9.646;2022-11-15T01:07:27;21.63;;;11.45;;
28724;SDS011;43472;48.980;9.646;2022-11-15T01:12:29;13.50;;;7.55;;
28724;SDS011;43472;48.980;9.646;2022-11-15T01:17:30;20.75;;;10.07;;
28724;SDS011;43472;48.980;9.646;2022-11-15T01:22:32;10.55;;;6.20;;
28724;SDS011;43472;48.980;9.646;2022-11-15T01:27:34;17.30;;;7.53;;
28724;SDS011;43472;48.980;9.646;2022-11-15T01:32:36;27.55;;;12.25;;
28724;SDS011;43472;48.980;9.646;2022-11-15T01:37:37;23.73;;;11.00;;
28724;SDS011;43472;48.980;9.646;2022-11-15T01:42:39;13.68;;;6.90;;
28724;SDS011;43472;48.980;9.646;2022-11-15T01:47:42;9.32;;;3.55;;
28724;SDS011;43472;48.980;9.646;2022-11-15T01:52:49;12.25;;;4.07;;
28724;SDS011;43472;48.980;9.646;2022-11-15T01:57:53;9.20;;;4.13;;
28724;SDS011;43472;48.980;9.646;2022-11-15T02:02:58;3.47;;;1.98;;
28724;SDS011;43472;48.980;9.646;2022-11-15T02:08:00;13.60;;;7.07;;
28724;SDS011;43472;48.980;9.646;2022-11-15T02:13:02;10.98;;;5.82;;
28724;SDS011;43472;48.980;9.646;2022-11-15T02:39:36;2.83;;;1.92;;
28724;SDS011;43472;48.980;9.646;2022-11-15T02:44:45;10.75;;;2.03;;
28724;SDS011;43472;48.980;9.646;2022-11-15T02:49:48;3.40;;;1.70;;
28724;SDS011;43472;48.980;9.646;2022-11-15T02:54:53;2.45;;;1.50;;
28724;SDS011;43472;48.980;9.646;2022-11-15T03:00:04;5.28;;;2.25;;
28724;SDS011;43472;48.980;9.646;2022-11-15T03:05:19;5.53;;;2.92;;
28724;SDS011;43472;48.980;9.646;2022-11-15T03:15:44;5.55;;;2.65;;
28724;SDS011;43472;48.980;9.646;2022-11-15T03:20:54;16.33;;;7.50;;
28724;SDS011;43472;48.980;9.646;2022-11-15T03:25:59;28.92;;;10.98;;
28724;SDS011;43472;48.980;9.646;2022-11-15T03:31:02;8.68;;;3.17;;
28724;SDS011;43472;48.980;9.646;2022-11-15T03:36:25;3.35;;;2.20;;
28724;SDS011;43472;48.980;9.646;2022-11-15T03:41:30;7.03;;;2.30;;
28724;SDS011;43472;48.980;9.646;2022-11-15T03:46:52;7.40;;;2.13;;
28724;SDS011;43472;48.980;9.646;2022-11-15T03:52:04;2.10;;;1.60;;
28724;SDS011;43472;48.980;9.646;2022-11-15T03:57:06;3.03;;;1.63;;
28724;SDS011;43472;48.980;9.646;2022-11-15T04:02:08;1.77;;;1.40;;
28724;SDS011;43472;48.980;9.646;2022-11-15T04:07:10;2.58;;;1.90;;
28724;SDS011;43472;48.980;9.646;2022-11-15T04:12:13;11.35;;;2.75;;
28724;SDS011;43472;48.980;9.646;2022-11-15T04:17:31;5.72;;;2.10;;
28724;SDS011;43472;48.980;9.646;2022-11-15T04:22:33;10.40;;;1.75;;
28724;SDS011;43472;48.980;9.646;2022-11-15T04:27:54;5.80;;;2.05;;
28724;SDS011;43472;48.980;9.646;2022-11-15T04:32:56;3.05;;;1.80;;
28724;SDS011;43472;48.980;9.646;2022-11-15T04:37:58;3.38;;;1.55;;
28724;SDS011;43472;48.980;9.646;2022-11-15T04:43:00;6.00;;;2.30;;
28724;SDS011;43472;48.980;9.646;2022-11-15T04:48:04;5.30;;;1.88;;
28724;SDS011;43472;48.980;9.646;2022-11-15T04:53:06;3.78;;;1.70;;
28724;SDS011;43472;48.980;9.646;2022-11-15T04:58:08;3.30;;;1.40;;
28724;SDS011;43472;48.980;9.646;2022-11-15T05:03:10;6.38;;;2.40;;
28724;SDS011;43472;48.980;9.646;2022-11-15T05:08:31;2.85;;;2.40;;
28724;SDS011;43472;48.980;9.646;2022-11-15T05:13:33;5.40;;;2.30;;
28724;SDS011;43472;48.980;9.646;2022-11-15T05:18:34;4.00;;;2.10;;
28724;SDS011;43472;48.980;9.646;2022-11-15T05:23:37;3.45;;;2.13;;
28724;SDS011;43472;48.980;9.646;2022-11-15T05:28:39;4.15;;;1.98;;
28724;SDS011;43472;48.980;9.646;2022-11-15T05:33:41;2.78;;;1.90;;
28724;SDS011;43472;48.980;9.646;2022-11-15T05:38:45;6.15;;;2.00;;
28724;SDS011;43472;48.980;9.646;2022-11-15T05:43:47;5.40;;;1.77;;
28724;SDS011;43472;48.980;9.646;2022-11-15T05:48:50;5.72;;;1.80;;
28724;SDS011;43472;48.980;9.646;2022-11-15T05:53:55;5.10;;;1.63;;
28724;SDS011;43472;48.980;9.646;2022-11-15T05:58:59;3.22;;;1.92;;
28724;SDS011;43472;48.980;9.646;2022-11-15T06:04:01;2.75;;;1.67;;
28724;SDS011;43472;48.980;9.646;2022-11-15T06:09:03;9.77;;;5.95;;
28724;SDS011;43472;48.980;9.646;2022-11-15T06:14:04;8.50;;;4.57;;
28724;SDS011;43472;48.980;9.646;2022-11-15T06:19:06;6.15;;;3.70;;
28724;SDS011;43472;48.980;9.646;2022-11-15T06:24:09;5.25;;;2.90;;
28724;SDS011;43472;48.980;9.646;2022-11-15T06:29:10;4.88;;;2.50;;
28724;SDS011;43472;48.980;9.646;2022-11-15T06:34:12;3.03;;;2.15;;
28724;SDS011;43472;48.980;9.646;2022-11-15T06:39:14;7.70;;;4.03;;
28724;SDS011;43472;48.980;9.646;2022-11-15T06:44:15;3.85;;;1.88;;
28724;SDS011;43472;48.980;9.646;2022-11-15T06:49:17;9.23;;;3.60;;
28724;SDS011;43472;48.980;9.646;2022-11-15T06:54:19;3.92;;;2.08;;
28724;SDS011;43472;48.980;9.646;2022-11-15T06:59:22;7.72;;;3.33;;
28724;SDS011;43472;48.980;9.646;2022-11-15T07:04:23;5.28;;;2.97;;
28724;SDS011;43472;48.980;9.646;2022-11-15T07:09:25;5.30;;;2.00;;
28724;SDS011;43472;48.980;9.646;2022-11-15T07:14:27;16.77;;;8.63;;
28724;SDS011;43472;48.980;9.646;2022-11-15T07:19:29;17.88;;;10.57;;
28724;SDS011;43472;48.980;9.646;2022-11-15T07:24:31;14.05;;;6.93;;
28724;SDS011;43472;48.980;9.646;2022-11-15T07:29:33;14.02;;;6.28;;
28724;SDS011;43472;48.980;9.646;2022-11-15T07:34:34;13.23;;;6.50;;
28724;SDS011;43472;48.980;9.646;2022-11-15T07:39:36;32.35;;;15.55;;
28724;SDS011;43472;48.980;9.646;2022-11-15T07:44:38;39.10;;;21.27;;
28724;SDS011;43472;48.980;9.646;2022-11-15T07:49:39;35.55;;;20.02;;
28724;SDS011;43472;48.980;9.646;2022-11-15T07:54:41;26.90;;;15.05;;
28724;SDS011;43472;48.980;9.646;2022-11-15T07:59:43;28.77;;;13.05;;
28724;SDS011;43472;48.980;9.646;2022-11-15T08:04:44;13.73;;;7.50;;
28724;SDS011;43472;48.980;9.646;2022-11-15T08:09:46;40.78;;;15.88;;
28724;SDS011;43472;48.980;9.646;2022-11-15T08:14:48;59.28;;;25.08;;
28724;SDS011;43472;48.980;9.646;2022-11-15T08:19:50;55.53;;;27.60;;
28724;SDS011;43472;48.980;9.646;2022-11-15T08:24:52;62.42;;;30.25;;
28724;SDS011;43472;48.980;9.646;2022-11-15T08:29:54;44.25;;;22.85;;
28724;SDS011;43472;48.980;9.646;2022-11-15T08:34:59;62.33;;;31.77;;
28724;SDS011;43472;48.980;9.646;2022-11-15T08:40:01;55.63;;;26.20;;
28724;SDS011;43472;48.980;9.646;2022-11-15T08:45:03;42.65;;;21.23;;
28724;SDS011;43472;48.980;9.646;2022-11-15T08:50:05;41.75;;;20.17;;
28724;SDS011;43472;48.980;9.646;2022-11-15T08:55:08;38.38;;;19.42;;
28724;SDS011;43472;48.980;9.646;2022-11-15T09:00:10;32.67;;;16.90;;
28724;SDS011;43472;48.980;9.646;2022-11-15T09:05:13;22.52;;;13.48;;
28724;SDS011;43472;48.980;9.646;2022-11-15T09:10:16;12.05;;;7.10;;
28724;SDS011;43472;48.980;9.646;2022-11-15T09:15:18;11.48;;;5.93;;
28724;SDS011;43472;48.980;9.646;2022-11-15T09:20:20;12.70;;;6.88;;
28724;SDS011;43472;48.980;9.646;2022-11-15T09:25:22;15.20;;;6.32;;
28724;SDS011;43472;48.980;9.646;2022-11-15T09:30:24;11.90;;;5.57;;
28724;SDS011;43472;48.980;9.646;2022-11-15T09:35:26;9.13;;;4.95;;
28724;SDS011;43472;48.980;9.646;2022-11-15T09:40:29;13.40;;;4.30;;
28724;SDS011;43472;48.980;9.646;2022-11-15T09:45:34;10.13;;;4.43;;
28724;SDS011;43472;48.980;9.646;2022-11-15T09:50:49;8.02;;;4.05;;
28724;SDS011;43472;48.980;9.646;2022-11-15T10:01:02;7.50;;;4.20;;
28724;SDS011;43472;48.980;9.646;2022-11-15T10:06:18;10.23;;;4.63;;
28724;SDS011;43472;48.980;9.646;2022-11-15T10:11:28;9.48;;;4.85;;
28724;SDS011;43472;48.980;9.646;2022-11-15T10:22:27;7.15;;;4.30;;
28724;SDS011;43472;48.980;9.646;2022-11-15T10:27:31;6.25;;;3.30;;
28724;SDS011;43472;48.980;9.646;2022-11-15T10:32:33;9.05;;;3.85;;
28724;SDS011;43472;48.980;9.646;2022-11-15T10:37:37;7.93;;;3.05;;
28724;SDS011;43472;48.980;9.646;2022-11-15T10:42:38;7.80;;;3.30;;
28724;SDS011;43472;48.980;9.646;2022-11-15T10:47:40;9.23;;;4.53;;
28724;SDS011;43472;48.980;9.646;2022-11-15T10:52:44;8.10;;;3.80;;
28724;SDS011;43472;48.980;9.646;2022-11-15T10:57:52;8.52;;;3.67;;
28724;SDS011;43472;48.980;9.646;2022-11-15T11:13:14;8.55;;;4.63;;
28724;SDS011;43472;48.980;9.646;2022-11-15T11:18:34;6.88;;;4.13;;
28724;SDS011;43472;48.980;9.646;2022-11-15T11:23:52;10.13;;;3.17;;
28724;SDS011;43472;48.980;9.646;2022-11-15T11:29:08;5.93;;;2.83;;
28724;SDS011;43472;48.980;9.646;2022-11-15T11:34:36;6.10;;;3.17;;
28724;SDS011;43472;48.980;9.646;2022-11-15T11:50:37;9.43;;;2.88;;
28724;SDS011;43472;48.980;9.646;2022-11-15T11:55:41;12.38;;;5.70;;
28724;SDS011;43472;48.980;9.646;2022-11-15T12:00:49;7.68;;;2.70;;
28724;SDS011;43472;48.980;9.646;2022-11-15T12:05:57;6.40;;;2.17;;
28724;SDS011;43472;48.980;9.646;2022-11-15T12:21:41;7.13;;;2.47;;
28724;SDS011;43472;48.980;9.646;2022-11-15T12:27:18;10.10;;;3.10;;
28724;SDS011;43472;48.980;9.646;2022-11-15T12:32:57;6.57;;;2.95;;
28724;SDS011;43472;48.980;9.646;2022-11-15T12:38:01;6.50;;;3.58;;
28724;SDS011;43472;48.980;9.646;2022-11-15T12:58:27;4.97;;;3.25;;
28724;SDS011;43472;48.980;9.646;2022-11-15T13:04:23;5.13;;;1.90;;
28724;SDS011;43472;48.980;9.646;2022-11-15T13:09:56;6.93;;;3.60;;
28724;SDS011;43472;48.980;9.646;2022-11-15T13:14:43;3.45;;;2.00;;
28724;SDS011;43472;48.980;9.646;2022-11-15T13:19:52;4.50;;;1.27;;
28724;SDS011;43472;48.980;9.646;2022-11-15T13:25:03;3.83;;;1.25;;
28724;SDS011;43472;48.980;9.646;2022-11-15T13:30:05;2.75;;;1.20;;
28724;SDS011;43472;48.980;9.646;2022-11-15T13:35:18;4.30;;;1.55;;
28724;SDS011;43472;48.980;9.646;2022-11-15T13:45:31;1.45;;;1.10;;
28724;SDS011;43472;48.980;9.646;2022-11-15T13:50:33;3.63;;;2.03;;
28724;SDS011;43472;48.980;9.646;2022-11-15T13:55:38;9.63;;;2.78;;
28724;SDS011;43472;48.980;9.646;2022-11-15T14:00:43;8.48;;;3.80;;
28724;SDS011;43472;48.980;9.646;2022-11-15T14:11:21;8.10;;;4.47;;
28724;SDS011;43472;48.980;9.646;2022-11-15T14:16:23;6.18;;;3.75;;
28724;SDS011;43472;48.980;9.646;2022-11-15T14:22:07;12.02;;;5.57;;
28724;SDS011;43472;48.980;9.646;2022-11-15T14:27:32;14.68;;;3.80;;
28724;SDS011;43472;48.980;9.646;2022-11-15T14:32:47;10.00;;;2.88;;
28724;SDS011;43472;48.980;9.646;2022-11-15T14:37:50;12.70;;;4.32;;
28724;SDS011;43472;48.980;9.646;2022-11-15T14:42:52;13.35;;;6.20;;
28724;SDS011;43472;48.980;9.646;2022-11-15T14:47:54;14.18;;;4.55;;
28724;SDS011;43472;48.980;9.646;2022-11-15T14:52:56;6.03;;;3.13;;
28724;SDS011;43472;48.980;9.646;2022-11-15T14:57:58;11.65;;;3.60;;
28724;SDS011;43472;48.980;9.646;2022-11-15T15:03:00;9.10;;;2.80;;
28724;SDS011;43472;48.980;9.646;2022-11-15T15:08:02;8.63;;;2.40;;
28724;SDS011;43472;48.980;9.646;2022-11-15T15:13:05;3.53;;;1.70;;
28724;SDS011;43472;48.980;9.646;2022-11-15T15:18:07;4.65;;;1.40;;
28724;SDS011;43472;48.980;9.646;2022-11-15T15:23:19;4.82;;;2.13;;
28724;SDS011;43472;48.980;9.646;2022-11-15T15:28:21;15.63;;;7.63;;
28724;SDS011;43472;48.980;9.646;2022-11-15T15:33:23;20.60;;;10.30;;
28724;SDS011;43472;48.980;9.646;2022-11-15T15:38:24;14.75;;;9.13;;
28724;SDS011;43472;48.980;9.646;2022-11-15T15:43:26;5.63;;;3.90;;
28724;SDS011;43472;48.980;9.646;2022-11-15T15:48:28;11.23;;;4.50;;
28724;SDS011;43472;48.980;9.646;2022-11-15T15:53:31;9.20;;;2.88;;
28724;SDS011;43472;48.980;9.646;2022-11-15T15:58:33;2.40;;;1.70;;
28724;SDS011;43472;48.980;9.646;2022-11-15T16:03:35;6.88;;;2.65;;
28724;SDS011;43472;48.980;9.646;2022-11-15T16:08:37;8.68;;;3.47;;
28724;SDS011;43472;48.980;9.646;2022-11-15T16:13:59;13.18;;;7.40;;
28724;SDS011;43472;48.980;9.646;2022-11-15T16:19:00;11.88;;;6.55;;
28724;SDS011;43472;48.980;9.646;2022-11-15T16:24:02;14.40;;;8.25;;
28724;SDS011;43472;48.980;9.646;2022-11-15T16:29:04;6.40;;;3.08;;
28724;SDS011;43472;48.980;9.646;2022-11-15T16:34:08;8.18;;;5.38;;
28724;SDS011;43472;48.980;9.646;2022-11-15T16:39:12;7.72;;;3.85;;
28724;SDS011;43472;48.980;9.646;2022-11-15T16:44:15;26.70;;;11.35;;
28724;SDS011;43472;48.980;9.646;2022-11-15T16:49:18;36.92;;;19.00;;
28724;SDS011;43472;48.980;9.646;2022-11-15T16:54:20;45.85;;;23.08;;
28724;SDS011;43472;48.980;9.646;2022-11-15T16:59:22;30.10;;;16.48;;
28724;SDS011;43472;48.980;9.646;2022-11-15T17:04:24;119.95;;;38.20;;
28724;SDS011;43472;48.980;9.646;2022-11-15T17:09:27;110.60;;;38.35;;
28724;SDS011;43472;48.980;9.646;2022-11-15T17:14:29;87.32;;;37.55;;
28724;SDS011;43472;48.980;9.646;2022-11-15T17:19:31;73.95;;;32.83;;
28724;SDS011;43472;48.980;9.646;2022-11-15T17:24:33;90.60;;;36.80;;
28724;SDS011;43472;48.980;9.646;2022-11-15T17:29:34;63.65;;;28.27;;
28724;SDS011;43472;48.980;9.646;2022-11-15T17:34:36;58.33;;;24.80;;
28724;SDS011;43472;48.980;9.646;2022-11-15T17:39:38;39.72;;;16.92;;
28724;SDS011;43472;48.980;9.646;2022-11-15T17:44:40;23.63;;;13.65;;
28724;SDS011;43472;48.980;9.646;2022-11-15T17:49:42;16.20;;;9.43;;
28724;SDS011;43472;48.980;9.646;2022-11-15T17:54:44;5.50;;;3.35;;
28724;SDS011;43472;48.980;9.646;2022-11-15T17:59:45;16.17;;;10.07;;
28724;SDS011;43472;48.980;9.646;2022-11-15T18:04:48;5.72;;;4.32;;
28724;SDS011;43472;48.980;9.646;2022-11-15T18:09:50;8.50;;;4.93;;
28724;SDS011;43472;48.980;9.646;2022-11-15T18:14:53;5.95;;;2.97;;
28724;SDS011;43472;48.980;9.646;2022-11-15T18:19:56;20.63;;;12.07;;
28724;SDS011;43472;48.980;9.646;2022-11-15T18:24:58;22.10;;;11.35;;
28724;SDS011;43472;48.980;9.646;2022-11-15T18:30:00;23.23;;;11.35;;
28724;SDS011;43472;48.980;9.646;2022-11-15T18:35:02;41.17;;;22.92;;
28724;SDS011;43472;48.980;9.646;2022-11-15T18:40:04;15.02;;;8.85;;
28724;SDS011;43472;48.980;9.646;2022-11-15T18:45:07;21.67;;;11.52;;
28724;SDS011;43472;48.980;9.646;2022-11-15T18:50:09;18.30;;;6.75;;
28724;SDS011;43472;48.980;9.646;2022-11-15T18:55:11;5.65;;;3.40;;
28724;SDS011;43472;48.980;9.646;2022-11-15T19:00:14;33.22;;;17.05;;
28724;SDS011;43472;48.980;9.646;2022-11-15T19:05:17;11.25;;;4.70;;
28724;SDS011;43472;48.980;9.646;2022-11-15T19:10:21;18.38;;;9.05;;
28724;SDS011;43472;48.980;9.646;2022-11-15T19:15:23;6.60;;;4.10;;
28724;SDS011;43472;48.980;9.646;2022-11-15T19:20:24;8.98;;;3.70;;
28724;SDS011;43472;48.980;9.646;2022-11-15T19:25:26;10.48;;;5.20;;
28724;SDS011;43472;48.980;9.646;2022-11-15T19:30:30;14.48;;;7.93;;
28724;SDS011;43472;48.980;9.646;2022-11-15T19:35:31;9.30;;;5.20;;
28724;SDS011;43472;48.980;9.646;2022-11-15T19:40:33;10.85;;;7.07;;
28724;SDS011;43472;48.980;9.646;2022-11-15T19:45:36;15.00;;;6.68;;
28724;SDS011;43472;48.980;9.646;2022-11-15T19:50:38;33.55;;;16.05;;
28724;SDS011;43472;48.980;9.646;2022-11-15T19:55:40;35.20;;;17.08;;
28724;SDS011;43472;48.980;9.646;2022-11-15T20:00:42;32.20;;;15.68;;
28724;SDS011;43472;48.980;9.646;2022-11-15T20:05:44;25.58;;;15.65;;
28724;SDS011;43472;48.980;9.646;2022-11-15T20:10:47;27.80;;;13.27;;
28724;SDS011;43472;48.980;9.646;2022-11-15T20:15:49;41.72;;;21.13;;
28724;SDS011;43472;48.980;9.646;2022-11-15T20:20:50;34.65;;;19.17;;
28724;SDS011;43472;48.980;9.646;2022-11-15T20:25:52;38.25;;;18.85;;
28724;SDS011;43472;48.980;9.646;2022-11-15T20:30:56;33.40;;;18.73;;
28724;SDS011;43472;48.980;9.646;2022-11-15T20:36:02;55.20;;;25.30;;
28724;SDS011;43472;48.980;9.646;2022-11-15T20:41:10;20.77;;;11.33;;
28724;SDS011;43472;48.980;9.646;2022-11-15T20:46:12;28.17;;;15.63;;
28724;SDS011;43472;48.980;9.646;2022-11-15T20:51:15;23.48;;;12.52;;
28724;SDS011;43472;48.980;9.646;2022-11-15T20:56:19;13.90;;;8.85;;
28724;SDS011;43472;48.980;9.646;2022-11-15T21:01:21;25.13;;;13.75;;
28724;SDS011;43472;48.980;9.646;2022-11-15T21:06:25;26.95;;;16.95;;
28724;SDS011;43472;48.980;9.646;2022-11-15T21:11:27;30.08;;;17.42;;
28724;SDS011;43472;48.980;9.646;2022-11-15T21:16:48;25.48;;;14.80;;
28724;SDS011;43472;48.980;9.646;2022-11-15T21:21:50;22.15;;;13.98;;
28724;SDS011;43472;48.980;9.646;2022-11-15T21:26:52;10.32;;;7.47;;
28724;SDS011;43472;48.980;9.646;2022-11-15T21:31:54;10.63;;;5.82;;
28724;SDS011;43472;48.980;9.646;2022-11-15T21:36:56;11.68;;;5.60;;
28724;SDS011;43472;48.980;9.646;2022-11-15T21:41:58;14.65;;;8.07;;
28724;SDS011;43472;48.980;9.646;2022-11-15T21:47:00;14.73;;;7.10;;
28724;SDS011;43472;48.980;9.646;2022-11-15T21:52:02;13.90;;;6.75;;
28724;SDS011;43472;48.980;9.646;2022-11-15T21:57:04;16.55;;;10.23;;
28724;SDS011;43472;48.980;9.646;2022-11-15T22:02:07;13.75;;;7.15;;
28724;SDS011;43472;48.980;9.646;2022-11-15T22:07:15;14.00;;;7.57;;
28724;SDS011;43472;48.980;9.646;2022-11-15T22:12:17;13.52;;;6.90;;
28724;SDS011;43472;48.980;9.646;2022-11-15T22:17:19;10.63;;;6.18;;
28724;SDS011;43472;48.980;9.646;2022-11-15T22:22:21;9.77;;;6.30;;
28724;SDS011;43472;48.980;9.646;2022-11-15T22:27:23;11.15;;;6.40;;
28724;SDS011;43472;48.980;9.646;2022-11-15T22:32:25;10.45;;;5.55;;
28724;SDS011;43472;48.980;9.646;2022-11-15T22:37:26;12.77;;;5.95;;
28724;SDS011;43472;48.980;9.646;2022-11-15T22:42:28;12.88;;;5.00;;
28724;SDS011;43472;48.980;9.646;2022-11-15T22:47:32;8.23;;;5.18;;
28724;SDS011;43472;48.980;9.646;2022-11-15T22:52:34;12.20;;;7.03;;
28724;SDS011;43472;48.980;9.646;2022-11-15T22:57:36;22.05;;;11.80;;
28724;SDS011;43472;48.980;9.646;2022-11-15T23:02:40;24.15;;;9.95;;
28724;SDS011;43472;48.980;9.646;2022-11-15T23:07:43;20.05;;;9.20;;
28724;SDS011;43472;48.980;9.646;2022-11-15T23:12:45;17.73;;;8.52;;
28724;SDS011;43472;48.980;9.646;2022-11-15T23:18:06;18.88;;;7.95;;
28724;SDS011;43472;48.980;9.646;2022-11-15T23:23:07;11.52;;;6.53;;
28724;SDS011;43472;48.980;9.646;2022-11-15T23:28:09;10.50;;;6.47;;
28724;SDS011;43472;48.980;9.646;2022-11-15T23:33:12;14.48;;;8.27;;
28724;SDS011;43472;48.980;9.646;2022-11-15T23:43:38;7.10;;;4.35;;
28724;SDS011;43472;48.980;9.646;2022-11-15T23:48:40;12.88;;;6.00;;
28724;SDS011;43472;48.980;9.646;2022-11-15T23:53:41;10.93;;;4.90;;
28724;SDS011;43472;48.980;9.646;2022-11-15T23:58:44;16.02;;;7.13;;
